createdAt,value
2023-03-30T00:00:18.461Z,12.30
2023-03-30T00:00:51.449Z,12.30
2023-03-30T00:01:23.284Z,12.30
2023-03-30T00:01:55.092Z,12.30
2023-03-30T00:02:30.783Z,12.30
2023-03-30T00:03:03.003Z,12.30
2023-03-30T00:03:38.749Z,12.30
2023-03-30T00:04:12.322Z,12.30
2023-03-30T00:04:44.394Z,12.30
2023-03-30T00:05:17.417Z,12.30
2023-03-30T00:05:51.589Z,12.40
2023-03-30T00:06:24.239Z,12.40
2023-03-30T00:06:57.116Z,12.30
2023-03-30T00:07:30.042Z,12.40
2023-03-30T00:08:03.339Z,12.40
2023-03-30T00:08:36.121Z,12.40
2023-03-30T00:09:08.011Z,12.40
2023-03-30T00:09:42.374Z,12.40
2023-03-30T00:10:18.869Z,12.40
2023-03-30T00:10:50.954Z,12.30
2023-03-30T00:11:23.639Z,12.30
2023-03-30T00:11:56.477Z,12.30
2023-03-30T00:12:28.259Z,12.30
2023-03-30T00:13:00.102Z,12.30
2023-03-30T00:13:33.067Z,12.30
2023-03-30T00:14:05.845Z,12.30
2023-03-30T00:14:42.525Z,12.30
2023-03-30T00:15:16.514Z,12.30
2023-03-30T00:15:50.585Z,12.30
2023-03-30T00:16:23.197Z,12.30
2023-03-30T00:16:55.263Z,12.30
2023-03-30T00:17:28.092Z,12.30
2023-03-30T00:18:01.651Z,12.30
2023-03-30T00:18:34.158Z,12.30
2023-03-30T00:19:07.628Z,12.30
2023-03-30T00:19:40.468Z,12.30
2023-03-30T00:20:13.694Z,12.30
2023-03-30T00:20:50.610Z,12.20
2023-03-30T00:21:22.486Z,12.20
2023-03-30T00:21:54.382Z,12.20
2023-03-30T00:22:27.292Z,12.30
2023-03-30T00:22:59.307Z,12.20
2023-03-30T00:23:32.902Z,12.20
2023-03-30T00:24:06.040Z,12.20
2023-03-30T00:24:37.912Z,12.30
2023-03-30T00:25:13.228Z,12.30
2023-03-30T00:25:46.191Z,12.30
2023-03-30T00:26:18.139Z,12.30
2023-03-30T00:26:49.996Z,12.30
2023-03-30T00:27:22.776Z,12.30
2023-03-30T00:27:54.712Z,12.30
2023-03-30T00:28:27.046Z,12.30
2023-03-30T00:28:59.802Z,12.30
2023-03-30T00:29:31.589Z,12.30
2023-03-30T00:30:03.766Z,12.30
2023-03-30T00:30:37.042Z,12.30
2023-03-30T00:31:10.675Z,12.30
2023-03-30T00:31:42.713Z,12.30
2023-03-30T00:32:14.598Z,12.30
2023-03-30T00:32:47.849Z,12.30
2023-03-30T00:33:23.537Z,12.30
2023-03-30T00:34:02.487Z,12.30
2023-03-30T00:34:35.475Z,12.30
2023-03-30T00:35:08.144Z,12.30
2023-03-30T00:35:40.420Z,12.30
2023-03-30T00:36:13.650Z,12.30
2023-03-30T00:36:46.543Z,12.30
2023-03-30T00:37:19.367Z,12.30
2023-03-30T00:37:52.136Z,12.40
2023-03-30T00:38:24.262Z,12.40
2023-03-30T00:38:57.401Z,12.40
2023-03-30T00:39:29.292Z,12.40
2023-03-30T00:40:02.589Z,12.40
2023-03-30T00:40:35.494Z,12.40
2023-03-30T00:41:07.713Z,12.50
2023-03-30T00:41:40.933Z,12.50
2023-03-30T00:42:16.479Z,12.50
2023-03-30T00:42:49.065Z,12.50
2023-03-30T00:43:22.121Z,12.50
2023-03-30T00:43:58.989Z,12.40
2023-03-30T00:45:05.734Z,12.50
2023-03-30T00:45:40.301Z,12.40
2023-03-30T00:46:12.196Z,12.40
2023-03-30T00:46:43.996Z,12.40
2023-03-30T00:47:16.603Z,12.40
2023-03-30T00:47:54.757Z,12.40
2023-03-30T00:48:31.369Z,12.40
2023-03-30T00:49:06.032Z,12.40
2023-03-30T00:49:39.217Z,12.40
2023-03-30T00:50:12.508Z,12.40
2023-03-30T00:50:47.309Z,12.40
2023-03-30T00:51:20.792Z,12.30
2023-03-30T00:51:52.614Z,12.40
2023-03-30T00:52:24.928Z,12.40
2023-03-30T00:53:00.853Z,12.40
2023-03-30T00:53:35.678Z,12.40
2023-03-30T00:54:13.276Z,12.40
2023-03-30T00:54:48.052Z,12.40
2023-03-30T00:55:22.184Z,12.40
2023-03-30T00:55:56.069Z,12.40
2023-03-30T00:56:29.931Z,12.40
2023-03-30T00:57:01.834Z,12.40
2023-03-30T00:57:38.207Z,12.40
2023-03-30T00:58:10.714Z,12.40
2023-03-30T00:58:45.207Z,12.40
2023-03-30T00:59:17.028Z,12.40
2023-03-30T00:59:50.988Z,12.40
2023-03-30T01:00:24.478Z,12.60
2023-03-30T01:00:58.231Z,12.40
2023-03-30T01:01:38.320Z,12.40
2023-03-30T01:02:11.396Z,12.40
2023-03-30T01:02:47.028Z,12.40
2023-03-30T01:03:25.038Z,12.40
2023-03-30T01:04:00.711Z,12.40
2023-03-30T01:04:32.578Z,12.40
2023-03-30T01:05:06.161Z,12.40
2023-03-30T01:05:40.295Z,12.40
2023-03-30T01:06:13.181Z,12.40
2023-03-30T01:06:46.997Z,12.40
2023-03-30T01:07:24.166Z,12.40
2023-03-30T01:07:57.885Z,12.40
2023-03-30T01:08:32.458Z,12.40
2023-03-30T01:09:04.496Z,12.40
2023-03-30T01:09:37.731Z,12.40
2023-03-30T01:10:11.756Z,12.40
2023-03-30T01:10:44.381Z,12.40
2023-03-30T01:11:16.265Z,12.40
2023-03-30T01:11:49.164Z,12.30
2023-03-30T01:12:21.040Z,12.40
2023-03-30T01:12:52.978Z,12.40
2023-03-30T01:13:25.763Z,12.30
2023-03-30T01:14:01.174Z,12.30
2023-03-30T01:14:34.431Z,12.30
2023-03-30T01:15:08.584Z,12.30
2023-03-30T01:15:50.113Z,12.30
2023-03-30T01:16:30.164Z,12.30
2023-03-30T01:17:13.507Z,12.30
2023-03-30T01:18:03.425Z,12.30
2023-03-30T01:18:47.644Z,12.30
2023-03-30T01:19:48.133Z,12.30
2023-03-30T01:20:52.435Z,12.30
2023-03-30T01:21:50.854Z,12.30
2023-03-30T01:22:42.189Z,12.30
2023-03-30T01:23:46.966Z,12.30
2023-03-30T01:24:37.464Z,12.30
2023-03-30T01:25:32.142Z,12.30
2023-03-30T01:26:34.660Z,12.30
2023-03-30T01:27:19.362Z,12.30
2023-03-30T01:28:12.088Z,12.30
2023-03-30T01:28:50.492Z,12.30
2023-03-30T01:30:10.539Z,12.30
2023-03-30T01:31:03.274Z,12.30
2023-03-30T01:31:49.826Z,12.30
2023-03-30T01:32:55.848Z,12.30
2023-03-30T01:33:47.274Z,12.40
2023-03-30T01:34:52.559Z,12.40
2023-03-30T01:35:49.643Z,12.40
2023-03-30T01:37:01.509Z,12.40
2023-03-30T01:38:04.616Z,12.40
2023-03-30T01:39:15.981Z,12.40
2023-03-30T01:39:55.663Z,12.40
2023-03-30T01:40:32.124Z,12.40
2023-03-30T01:41:13.895Z,12.50
2023-03-30T01:41:55.604Z,12.40
2023-03-30T01:42:36.431Z,12.50
2023-03-30T01:43:15.560Z,12.50
2023-03-30T01:43:53.041Z,12.50
2023-03-30T01:44:33.014Z,12.50
2023-03-30T01:45:11.796Z,12.50
2023-03-30T01:45:46.998Z,12.50
2023-03-30T01:46:25.032Z,12.50
2023-03-30T01:47:01.320Z,12.40
2023-03-30T01:47:39.645Z,12.50
2023-03-30T01:48:15.865Z,12.50
2023-03-30T01:48:54.746Z,12.50
2023-03-30T01:49:32.984Z,12.50
2023-03-30T01:50:11.758Z,12.50
2023-03-30T01:50:49.057Z,12.50
2023-03-30T01:51:24.816Z,12.50
2023-03-30T01:52:02.744Z,12.50
2023-03-30T01:52:41.137Z,12.50
2023-03-30T01:53:17.681Z,12.50
2023-03-30T01:53:56.265Z,12.50
2023-03-30T01:54:33.765Z,12.50
2023-03-30T01:55:12.672Z,12.50
2023-03-30T01:55:48.475Z,12.50
2023-03-30T01:56:25.408Z,12.50
2023-03-30T01:57:05.264Z,12.50
2023-03-30T01:57:44.080Z,12.60
2023-03-30T01:58:21.020Z,12.50
2023-03-30T01:58:58.080Z,12.60
2023-03-30T01:59:35.409Z,12.60
2023-03-30T02:00:14.446Z,12.60
2023-03-30T02:00:50.924Z,12.70
2023-03-30T02:01:25.932Z,12.70
2023-03-30T02:02:04.271Z,12.60
2023-03-30T02:02:37.996Z,12.70
2023-03-30T02:03:13.445Z,12.70
2023-03-30T02:03:50.081Z,12.70
2023-03-30T02:04:25.409Z,12.70
2023-03-30T02:05:00.692Z,12.70
2023-03-30T02:05:33.422Z,12.60
2023-03-30T02:06:11.973Z,12.70
2023-03-30T02:06:48.208Z,12.60
2023-03-30T02:07:23.659Z,12.60
2023-03-30T02:07:59.487Z,12.70
2023-03-30T02:08:34.526Z,12.70
2023-03-30T02:09:08.586Z,12.70
2023-03-30T02:09:44.643Z,12.70
2023-03-30T02:10:18.580Z,12.70
2023-03-30T02:10:53.252Z,12.70
2023-03-30T02:11:28.069Z,12.70
2023-03-30T02:12:02.221Z,12.70
2023-03-30T02:12:35.197Z,12.70
2023-03-30T02:13:09.153Z,12.70
2023-03-30T02:13:42.952Z,12.80
2023-03-30T02:14:17.521Z,12.80
2023-03-30T02:14:51.214Z,12.70
2023-03-30T02:15:26.333Z,12.80
2023-03-30T02:16:02.916Z,12.80
2023-03-30T02:16:41.727Z,12.80
2023-03-30T02:17:17.453Z,12.80
2023-03-30T02:17:49.675Z,12.80
2023-03-30T02:18:22.573Z,12.80
2023-03-30T02:18:54.837Z,12.80
2023-03-30T02:19:27.154Z,12.80
2023-03-30T02:20:00.477Z,12.80
2023-03-30T02:20:33.131Z,12.80
2023-03-30T02:21:05.689Z,12.80
2023-03-30T02:21:38.969Z,12.80
2023-03-30T02:22:10.878Z,12.80
2023-03-30T02:22:43.307Z,12.80
2023-03-30T02:23:18.922Z,12.80
2023-03-30T02:23:54.712Z,12.80
2023-03-30T02:24:28.929Z,12.80
2023-03-30T02:25:03.056Z,12.80
2023-03-30T02:25:38.221Z,12.80
2023-03-30T02:26:10.514Z,12.80
2023-03-30T02:26:43.495Z,12.80
2023-03-30T02:27:16.029Z,12.80
2023-03-30T02:27:47.999Z,12.80
2023-03-30T02:28:21.396Z,12.90
2023-03-30T02:28:53.711Z,12.80
2023-03-30T02:29:25.601Z,12.90
2023-03-30T02:29:58.389Z,12.90
2023-03-30T02:30:33.088Z,12.90
2023-03-30T02:31:09.763Z,12.90
2023-03-30T02:31:42.892Z,12.90
2023-03-30T02:32:18.760Z,12.90
2023-03-30T02:32:54.965Z,12.90
2023-03-30T02:33:37.988Z,12.90
2023-03-30T02:34:15.346Z,13.00
2023-03-30T02:35:02.327Z,13.00
2023-03-30T02:35:50.844Z,13.00
2023-03-30T02:36:39.719Z,13.00
2023-03-30T02:37:30.137Z,13.00
2023-03-30T02:38:17.109Z,13.00
2023-03-30T02:39:04.953Z,13.00
2023-03-30T02:39:47.941Z,13.10
2023-03-30T02:40:33.232Z,13.10
2023-03-30T02:41:16.574Z,13.00
2023-03-30T02:42:08.028Z,13.10
2023-03-30T02:43:03.306Z,13.10
2023-03-30T02:43:44.581Z,13.10
2023-03-30T02:44:29.306Z,13.10
2023-03-30T02:45:17.884Z,13.10
2023-03-30T02:45:53.345Z,13.10
2023-03-30T02:46:38.437Z,13.10
2023-03-30T02:47:16.587Z,13.10
2023-03-30T02:48:01.438Z,13.10
2023-03-30T02:48:42.043Z,13.10
2023-03-30T02:49:17.091Z,13.10
2023-03-30T02:49:57.598Z,13.00
2023-03-30T02:50:36.011Z,13.00
2023-03-30T02:51:25.301Z,13.10
2023-03-30T02:52:07.259Z,13.10
2023-03-30T02:52:49.062Z,13.10
2023-03-30T02:53:28.440Z,13.10
2023-03-30T02:54:10.181Z,13.10
2023-03-30T02:54:49.202Z,13.10
2023-03-30T02:55:34.497Z,13.10
2023-03-30T02:56:12.546Z,13.10
2023-03-30T02:56:51.141Z,13.10
2023-03-30T02:57:33.301Z,13.20
2023-03-30T02:58:12.616Z,13.10
2023-03-30T02:58:50.482Z,13.10
2023-03-30T02:59:27.616Z,13.10
2023-03-30T03:00:07.362Z,13.10
2023-03-30T03:00:45.372Z,13.10
2023-03-30T03:01:19.604Z,13.30
2023-03-30T03:01:56.766Z,13.20
2023-03-30T03:02:35.057Z,13.10
2023-03-30T03:03:14.169Z,13.10
2023-03-30T03:03:48.987Z,13.20
2023-03-30T03:04:23.211Z,13.20
2023-03-30T03:04:55.947Z,13.10
2023-03-30T03:05:28.514Z,13.20
2023-03-30T03:06:02.629Z,13.10
2023-03-30T03:06:34.438Z,13.20
2023-03-30T03:07:06.224Z,13.20
2023-03-30T03:07:40.671Z,13.20
2023-03-30T03:08:18.807Z,13.20
2023-03-30T03:08:50.741Z,13.10
2023-03-30T03:09:26.035Z,13.20
2023-03-30T03:09:58.006Z,13.10
2023-03-30T03:10:31.174Z,13.20
2023-03-30T03:11:04.253Z,13.20
2023-03-30T03:11:36.614Z,13.20
2023-03-30T03:12:08.518Z,13.20
2023-03-30T03:12:41.549Z,13.20
2023-03-30T03:13:14.996Z,13.20
2023-03-30T03:13:47.598Z,13.20
2023-03-30T03:14:20.742Z,13.30
2023-03-30T03:14:53.938Z,13.30
2023-03-30T03:15:25.908Z,13.30
2023-03-30T03:15:58.744Z,13.30
2023-03-30T03:16:30.811Z,13.30
2023-03-30T03:17:04.994Z,13.30
2023-03-30T03:17:38.934Z,13.30
2023-03-30T03:18:10.956Z,13.40
2023-03-30T03:18:42.863Z,13.40
2023-03-30T03:19:15.920Z,13.40
2023-03-30T03:19:47.749Z,13.40
2023-03-30T03:20:19.937Z,13.40
2023-03-30T03:20:52.773Z,13.40
2023-03-30T03:21:24.590Z,13.50
2023-03-30T03:21:56.363Z,13.50
2023-03-30T03:22:29.180Z,13.50
2023-03-30T03:23:01.275Z,13.50
2023-03-30T03:23:33.378Z,13.50
2023-03-30T03:24:08.035Z,13.50
2023-03-30T03:24:40.683Z,13.50
2023-03-30T03:25:12.601Z,13.50
2023-03-30T03:25:48.239Z,13.60
2023-03-30T03:26:20.184Z,13.50
2023-03-30T03:26:52.025Z,13.50
2023-03-30T03:27:24.858Z,13.60
2023-03-30T03:27:57.023Z,13.60
2023-03-30T03:28:29.433Z,13.60
2023-03-30T03:29:03.508Z,13.60
2023-03-30T03:29:36.232Z,13.60
2023-03-30T03:30:08.855Z,13.60
2023-03-30T03:30:41.900Z,13.60
2023-03-30T03:31:14.092Z,13.60
2023-03-30T03:31:45.988Z,13.60
2023-03-30T03:32:18.774Z,13.60
2023-03-30T03:32:51.172Z,13.50
2023-03-30T03:33:23.116Z,13.60
2023-03-30T03:33:55.990Z,13.60
2023-03-30T03:34:31.178Z,13.60
2023-03-30T03:35:03.035Z,13.60
2023-03-30T03:35:34.979Z,13.50
2023-03-30T03:36:08.691Z,13.60
2023-03-30T03:36:43.531Z,13.50
2023-03-30T03:37:15.354Z,13.50
2023-03-30T03:37:47.190Z,13.50
2023-03-30T03:38:19.971Z,13.50
2023-03-30T03:38:52.199Z,13.50
2023-03-30T03:39:24.160Z,13.40
2023-03-30T03:39:56.911Z,13.50
2023-03-30T03:40:28.688Z,13.40
2023-03-30T03:41:02.037Z,13.40
2023-03-30T03:41:35.174Z,13.50
2023-03-30T03:42:07.329Z,13.40
2023-03-30T03:42:39.223Z,13.50
2023-03-30T03:43:12.000Z,13.50
2023-03-30T03:43:43.810Z,13.40
2023-03-30T03:44:15.755Z,13.50
2023-03-30T03:44:48.531Z,13.50
2023-03-30T03:45:20.409Z,13.50
2023-03-30T03:45:52.819Z,13.60
2023-03-30T03:46:25.754Z,13.60
2023-03-30T03:46:57.754Z,13.60
2023-03-30T03:47:31.171Z,13.60
2023-03-30T03:48:04.125Z,13.60
2023-03-30T03:48:36.020Z,13.60
2023-03-30T03:49:08.119Z,13.60
2023-03-30T03:49:41.169Z,13.60
2023-03-30T03:50:13.025Z,13.60
2023-03-30T03:50:45.232Z,13.60
2023-03-30T03:51:17.985Z,13.60
2023-03-30T03:51:49.830Z,13.70
2023-03-30T03:52:21.740Z,13.70
2023-03-30T03:52:54.505Z,13.70
2023-03-30T03:53:27.839Z,13.70
2023-03-30T03:54:00.680Z,13.70
2023-03-30T03:54:33.562Z,13.70
2023-03-30T03:55:06.173Z,13.70
2023-03-30T03:55:38.211Z,13.70
2023-03-30T03:56:12.707Z,13.70
2023-03-30T03:56:44.532Z,13.70
2023-03-30T03:57:16.652Z,13.70
2023-03-30T03:57:49.419Z,13.70
2023-03-30T03:58:21.934Z,13.70
2023-03-30T03:58:53.782Z,13.70
2023-03-30T03:59:26.694Z,13.70
2023-03-30T03:59:59.696Z,13.60
2023-03-30T04:00:31.972Z,13.60
2023-03-30T04:01:04.164Z,13.60
2023-03-30T04:01:37.196Z,13.60
2023-03-30T04:02:09.118Z,13.60
2023-03-30T04:02:41.402Z,13.60
2023-03-30T04:03:14.331Z,13.60
2023-03-30T04:03:46.400Z,13.50
2023-03-30T04:04:18.210Z,13.50
2023-03-30T04:04:51.565Z,13.50
2023-03-30T04:05:23.540Z,13.40
2023-03-30T04:05:58.981Z,13.40
2023-03-30T04:06:31.741Z,13.40
2023-03-30T04:07:03.567Z,13.40
2023-03-30T04:07:36.764Z,13.40
2023-03-30T04:08:10.515Z,13.30
2023-03-30T04:08:43.493Z,13.30
2023-03-30T04:09:15.366Z,13.30
2023-03-30T04:09:48.394Z,13.30
2023-03-30T04:10:20.957Z,13.30
2023-03-30T04:10:52.787Z,13.30
2023-03-30T04:11:27.307Z,13.20
2023-03-30T04:11:59.121Z,13.20
2023-03-30T04:12:31.564Z,13.20
2023-03-30T04:13:04.356Z,13.10
2023-03-30T04:13:36.328Z,13.10
2023-03-30T04:14:08.150Z,13.10
2023-03-30T04:14:40.982Z,13.10
2023-03-30T04:15:12.970Z,13.00
2023-03-30T04:15:44.814Z,13.00
2023-03-30T04:16:16.677Z,13.00
2023-03-30T04:16:51.209Z,13.00
2023-03-30T04:17:23.730Z,13.00
2023-03-30T04:17:58.202Z,13.00
2023-03-30T04:18:33.368Z,12.90
2023-03-30T04:19:05.257Z,12.90
2023-03-30T04:19:37.488Z,12.90
2023-03-30T04:20:12.176Z,12.90
2023-03-30T04:20:44.048Z,12.90
2023-03-30T04:21:17.852Z,13.00
2023-03-30T04:21:50.613Z,12.90
2023-03-30T04:22:24.225Z,12.90
2023-03-30T04:22:56.969Z,13.10
2023-03-30T04:23:30.999Z,13.00
2023-03-30T04:24:03.800Z,13.00
2023-03-30T04:24:35.660Z,13.00
2023-03-30T04:25:09.684Z,13.00
2023-03-30T04:25:41.449Z,13.00
2023-03-30T04:26:15.446Z,13.00
2023-03-30T04:26:49.031Z,13.00
2023-03-30T04:27:20.915Z,13.00
2023-03-30T04:27:52.789Z,13.00
2023-03-30T04:28:29.607Z,13.00
2023-03-30T04:29:01.410Z,13.00
2023-03-30T04:29:33.310Z,13.00
2023-03-30T04:30:06.633Z,13.00
2023-03-30T04:30:38.718Z,13.00
2023-03-30T04:31:11.030Z,12.90
2023-03-30T04:31:48.326Z,12.90
2023-03-30T04:32:20.910Z,12.90
2023-03-30T04:33:03.253Z,12.90
2023-03-30T04:33:37.981Z,12.90
2023-03-30T04:34:09.888Z,12.90
2023-03-30T04:34:42.635Z,12.90
2023-03-30T04:35:16.475Z,12.80
2023-03-30T04:35:48.308Z,12.80
2023-03-30T04:36:20.673Z,12.80
2023-03-30T04:36:54.024Z,12.80
2023-03-30T04:37:30.156Z,12.70
2023-03-30T04:38:02.513Z,12.80
2023-03-30T04:38:36.349Z,12.80
2023-03-30T04:39:08.233Z,12.70
2023-03-30T04:39:41.458Z,12.70
2023-03-30T04:40:16.190Z,12.70
2023-03-30T04:40:48.186Z,12.70
2023-03-30T04:41:19.972Z,12.70
2023-03-30T04:41:54.168Z,12.70
2023-03-30T04:42:30.128Z,12.70
2023-03-30T04:43:03.736Z,12.70
2023-03-30T04:43:36.916Z,12.70
2023-03-30T04:44:09.764Z,12.70
2023-03-30T04:44:42.551Z,12.60
2023-03-30T04:45:14.369Z,12.70
2023-03-30T04:45:49.697Z,12.60
2023-03-30T04:46:22.554Z,12.60
2023-03-30T04:46:54.356Z,12.60
2023-03-30T04:47:26.538Z,12.60
2023-03-30T04:47:59.395Z,12.60
2023-03-30T04:48:31.346Z,12.60
2023-03-30T04:49:04.134Z,12.60
2023-03-30T04:49:36.923Z,12.60
2023-03-30T04:50:09.799Z,12.60
2023-03-30T04:50:41.904Z,12.50
2023-03-30T04:51:14.969Z,12.50
2023-03-30T04:51:46.824Z,12.50
2023-03-30T04:52:19.430Z,12.50
2023-03-30T04:52:52.212Z,12.50
2023-03-30T04:53:24.042Z,12.50
2023-03-30T04:53:56.033Z,12.50
2023-03-30T04:54:27.804Z,12.40
2023-03-30T04:55:00.837Z,12.40
2023-03-30T04:55:32.664Z,12.40
2023-03-30T04:56:04.913Z,12.40
2023-03-30T04:56:37.762Z,12.40
2023-03-30T04:57:11.212Z,12.40
2023-03-30T04:57:43.092Z,12.40
2023-03-30T04:58:15.953Z,12.40
2023-03-30T04:58:48.109Z,12.30
2023-03-30T04:59:20.050Z,12.30
2023-03-30T04:59:54.313Z,12.30
2023-03-30T05:00:27.361Z,12.30
2023-03-30T05:00:59.213Z,12.30
2023-03-30T05:01:32.133Z,12.30
2023-03-30T05:02:04.081Z,12.30
2023-03-30T05:02:36.377Z,12.30
2023-03-30T05:03:08.632Z,12.30
2023-03-30T05:03:41.455Z,12.30
2023-03-30T05:04:13.293Z,12.30
2023-03-30T05:04:45.086Z,12.30
2023-03-30T05:05:17.831Z,12.30
2023-03-30T05:05:49.620Z,12.30
2023-03-30T05:06:21.632Z,12.30
2023-03-30T05:06:53.422Z,12.30
2023-03-30T05:07:26.824Z,12.30
2023-03-30T05:07:58.708Z,12.40
2023-03-30T05:08:30.540Z,12.30
2023-03-30T05:09:03.765Z,12.40
2023-03-30T05:09:35.630Z,12.40
2023-03-30T05:10:08.120Z,12.40
2023-03-30T05:10:41.054Z,12.40
2023-03-30T05:11:13.048Z,12.40
2023-03-30T05:11:44.863Z,12.40
2023-03-30T05:12:19.024Z,12.40
2023-03-30T05:12:53.352Z,12.40
2023-03-30T05:13:25.209Z,12.40
2023-03-30T05:13:57.980Z,12.40
2023-03-30T05:14:29.832Z,12.40
2023-03-30T05:15:01.676Z,12.40
2023-03-30T05:15:34.441Z,12.40
2023-03-30T05:16:07.626Z,12.40
2023-03-30T05:16:39.585Z,12.50
2023-03-30T05:17:12.608Z,12.50
2023-03-30T05:17:44.567Z,12.50
2023-03-30T05:18:16.690Z,12.50
2023-03-30T05:18:51.593Z,12.50
2023-03-30T05:19:23.814Z,12.50
2023-03-30T05:19:56.257Z,12.50
2023-03-30T05:20:29.080Z,12.50
2023-03-30T05:21:00.946Z,12.50
2023-03-30T05:21:32.782Z,12.50
2023-03-30T05:22:06.009Z,12.50
2023-03-30T05:22:37.876Z,12.50
2023-03-30T05:23:09.709Z,12.50
2023-03-30T05:23:42.913Z,12.50
2023-03-30T05:24:14.986Z,12.50
2023-03-30T05:24:47.738Z,12.40
2023-03-30T05:25:19.808Z,12.50
2023-03-30T05:25:52.163Z,12.50
2023-03-30T05:26:25.123Z,12.40
2023-03-30T05:26:56.991Z,12.50
2023-03-30T05:27:30.138Z,12.40
2023-03-30T05:28:03.356Z,12.40
2023-03-30T05:28:35.554Z,12.50
2023-03-30T05:29:08.714Z,12.50
2023-03-30T05:29:40.608Z,12.40
2023-03-30T05:30:13.662Z,12.50
2023-03-30T05:30:46.725Z,12.50
2023-03-30T05:31:19.506Z,12.50
2023-03-30T05:31:51.376Z,12.60
2023-03-30T05:32:24.228Z,12.50
2023-03-30T05:32:56.277Z,12.50
2023-03-30T05:33:28.074Z,12.50
2023-03-30T05:34:00.820Z,12.50
2023-03-30T05:34:32.605Z,12.50
2023-03-30T05:35:05.415Z,12.50
2023-03-30T05:35:38.312Z,12.50
2023-03-30T05:36:10.833Z,12.50
2023-03-30T05:36:42.982Z,12.50
2023-03-30T05:37:15.892Z,12.50
2023-03-30T05:37:48.724Z,12.50
2023-03-30T05:38:20.631Z,12.50
2023-03-30T05:38:53.446Z,12.60
2023-03-30T05:39:25.236Z,12.60
2023-03-30T05:39:57.048Z,12.60
2023-03-30T05:40:28.849Z,12.50
2023-03-30T05:41:01.978Z,12.60
2023-03-30T05:41:34.068Z,12.60
2023-03-30T05:42:07.270Z,12.60
2023-03-30T05:42:41.369Z,12.60
2023-03-30T05:43:13.219Z,12.60
2023-03-30T05:43:45.605Z,12.70
2023-03-30T05:44:20.568Z,12.70
2023-03-30T05:44:53.811Z,12.70
2023-03-30T05:45:25.820Z,12.70
2023-03-30T05:45:58.619Z,12.80
2023-03-30T05:46:30.924Z,12.70
2023-03-30T05:47:03.651Z,12.70
2023-03-30T05:47:36.502Z,12.70
2023-03-30T05:48:08.367Z,12.70
2023-03-30T05:48:40.216Z,12.70
2023-03-30T05:49:12.991Z,12.70
2023-03-30T05:49:44.798Z,12.70
2023-03-30T05:50:16.933Z,12.80
2023-03-30T05:50:49.905Z,12.80
2023-03-30T05:51:21.702Z,12.80
2023-03-30T05:51:53.652Z,12.80
2023-03-30T05:52:26.451Z,12.80
2023-03-30T05:52:58.240Z,12.80
2023-03-30T05:53:30.319Z,12.80
2023-03-30T05:54:03.410Z,12.80
2023-03-30T05:54:35.349Z,12.70
2023-03-30T05:55:08.015Z,12.70
2023-03-30T05:55:40.909Z,12.70
2023-03-30T05:56:12.955Z,12.70
2023-03-30T05:56:44.883Z,12.70
2023-03-30T05:57:17.872Z,12.70
2023-03-30T05:57:51.103Z,12.70
2023-03-30T05:58:22.907Z,12.70
2023-03-30T05:58:55.686Z,12.70
2023-03-30T05:59:27.677Z,12.70
2023-03-30T06:00:00.297Z,12.70
2023-03-30T06:00:34.502Z,12.70
2023-03-30T06:01:07.471Z,12.70
2023-03-30T06:01:40.640Z,12.60
2023-03-30T06:02:12.885Z,12.60
2023-03-30T06:02:44.967Z,12.70
2023-03-30T06:03:18.003Z,12.70
2023-03-30T06:03:50.205Z,12.70
2023-03-30T06:04:22.406Z,12.70
2023-03-30T06:04:55.267Z,12.70
2023-03-30T06:05:27.381Z,12.70
2023-03-30T06:05:59.366Z,12.70
2023-03-30T06:06:32.567Z,12.70
2023-03-30T06:07:04.413Z,12.70
2023-03-30T06:07:37.394Z,12.70
2023-03-30T06:08:10.739Z,12.80
2023-03-30T06:08:42.795Z,12.80
2023-03-30T06:09:15.774Z,12.70
2023-03-30T06:09:47.768Z,12.80
2023-03-30T06:10:19.796Z,12.80
2023-03-30T06:10:56.524Z,12.80
2023-03-30T06:11:28.540Z,12.80
2023-03-30T06:12:00.567Z,12.80
2023-03-30T06:12:33.518Z,12.80
2023-03-30T06:13:07.086Z,12.80
2023-03-30T06:13:38.936Z,12.80
2023-03-30T06:14:11.795Z,12.80
2023-03-30T06:14:43.649Z,12.80
2023-03-30T06:15:15.579Z,12.80
2023-03-30T06:15:48.695Z,12.80
2023-03-30T06:16:21.306Z,12.80
2023-03-30T06:16:54.279Z,12.90
2023-03-30T06:17:26.197Z,12.90
2023-03-30T06:17:59.245Z,12.90
2023-03-30T06:18:32.030Z,12.90
2023-03-30T06:19:03.893Z,12.90
2023-03-30T06:19:36.055Z,12.90
2023-03-30T06:20:12.445Z,12.90
2023-03-30T06:20:47.392Z,12.90
2023-03-30T06:21:19.219Z,12.90
2023-03-30T06:21:52.116Z,13.00
2023-03-30T06:22:24.003Z,12.90
2023-03-30T06:22:55.964Z,13.00
2023-03-30T06:23:28.849Z,13.00
2023-03-30T06:24:01.240Z,13.00
2023-03-30T06:24:33.989Z,12.90
2023-03-30T06:25:07.152Z,13.00
2023-03-30T06:25:39.592Z,13.00
2023-03-30T06:26:12.319Z,13.00
2023-03-30T06:26:44.132Z,13.00
2023-03-30T06:27:15.910Z,13.00
2023-03-30T06:27:48.666Z,13.00
2023-03-30T06:28:22.800Z,13.00
2023-03-30T06:28:54.695Z,13.00
2023-03-30T06:29:27.469Z,13.00
2023-03-30T06:29:59.295Z,13.00
2023-03-30T06:30:32.296Z,13.10
2023-03-30T06:31:08.272Z,13.00
2023-03-30T06:31:41.153Z,13.10
2023-03-30T06:32:13.127Z,13.10
2023-03-30T06:32:45.127Z,13.10
2023-03-30T06:33:18.556Z,13.10
2023-03-30T06:33:51.261Z,13.10
2023-03-30T06:34:23.312Z,13.10
2023-03-30T06:34:56.083Z,13.10
2023-03-30T06:35:29.083Z,13.10
2023-03-30T06:36:01.987Z,13.20
2023-03-30T06:36:44.863Z,13.10
2023-03-30T06:37:17.819Z,13.10
2023-03-30T06:37:50.650Z,13.10
2023-03-30T06:38:23.172Z,13.10
2023-03-30T06:38:55.042Z,13.10
2023-03-30T06:39:29.566Z,13.10
2023-03-30T06:40:01.451Z,13.10
2023-03-30T06:40:34.252Z,13.10
2023-03-30T06:41:08.354Z,13.10
2023-03-30T06:41:40.346Z,13.10
2023-03-30T06:42:13.274Z,13.10
2023-03-30T06:42:45.306Z,13.10
2023-03-30T06:43:19.502Z,13.10
2023-03-30T06:43:52.672Z,13.10
2023-03-30T06:44:24.575Z,13.00
2023-03-30T06:44:57.368Z,13.10
2023-03-30T06:45:29.272Z,13.10
2023-03-30T06:46:01.411Z,13.20
2023-03-30T06:46:34.342Z,13.20
2023-03-30T06:47:06.259Z,13.20
2023-03-30T06:47:39.262Z,13.20
2023-03-30T06:48:11.142Z,13.20
2023-03-30T06:48:43.936Z,13.30
2023-03-30T06:49:15.796Z,13.30
2023-03-30T06:49:48.307Z,13.30
2023-03-30T06:50:21.174Z,13.30
2023-03-30T06:50:54.428Z,13.30
2023-03-30T06:51:26.467Z,13.30
2023-03-30T06:52:02.183Z,13.30
2023-03-30T06:52:35.993Z,13.30
2023-03-30T06:53:08.735Z,13.30
2023-03-30T06:53:40.713Z,13.40
2023-03-30T06:54:12.721Z,13.40
2023-03-30T06:54:45.517Z,13.40
2023-03-30T06:55:17.400Z,13.40
2023-03-30T06:55:52.685Z,13.40
2023-03-30T06:56:24.850Z,13.40
2023-03-30T06:56:56.872Z,13.40
2023-03-30T06:57:29.751Z,13.40
2023-03-30T06:58:01.670Z,13.30
2023-03-30T06:58:34.255Z,13.30
2023-03-30T06:59:08.352Z,13.30
2023-03-30T06:59:40.224Z,13.30
2023-03-30T07:00:14.195Z,13.30
2023-03-30T07:00:47.022Z,13.30
2023-03-30T07:01:19.401Z,13.30
2023-03-30T07:01:51.640Z,13.30
2023-03-30T07:02:25.290Z,13.30
2023-03-30T07:02:57.465Z,13.30
2023-03-30T07:03:31.106Z,13.20
2023-03-30T07:04:03.069Z,13.20
2023-03-30T07:04:35.955Z,13.20
2023-03-30T07:05:08.910Z,13.20
2023-03-30T07:05:40.867Z,13.20
2023-03-30T07:06:13.676Z,13.20
2023-03-30T07:06:45.500Z,13.20
2023-03-30T07:07:17.774Z,13.10
2023-03-30T07:07:50.736Z,13.10
2023-03-30T07:08:23.324Z,13.10
2023-03-30T07:08:55.186Z,13.10
2023-03-30T07:09:28.134Z,13.10
2023-03-30T07:10:00.165Z,13.20
2023-03-30T07:10:32.059Z,13.20
2023-03-30T07:11:05.532Z,13.20
2023-03-30T07:11:37.481Z,13.20
2023-03-30T07:12:10.542Z,13.10
2023-03-30T07:12:43.278Z,13.10
2023-03-30T07:13:16.507Z,13.10
2023-03-30T07:13:48.369Z,13.10
2023-03-30T07:14:21.539Z,13.20
2023-03-30T07:14:55.054Z,13.20
2023-03-30T07:15:27.416Z,13.10
2023-03-30T07:15:59.267Z,13.10
2023-03-30T07:16:32.739Z,13.20
2023-03-30T07:17:04.583Z,13.20
2023-03-30T07:17:37.029Z,13.20
2023-03-30T07:18:10.087Z,13.20
2023-03-30T07:18:41.995Z,13.20
2023-03-30T07:19:14.867Z,13.30
2023-03-30T07:19:46.701Z,13.30
2023-03-30T07:20:20.337Z,13.30
2023-03-30T07:20:53.458Z,13.30
2023-03-30T07:21:25.490Z,13.30
2023-03-30T07:21:57.306Z,13.30
2023-03-30T07:22:30.410Z,13.30
2023-03-30T07:23:02.562Z,13.30
2023-03-30T07:23:35.760Z,13.30
2023-03-30T07:24:08.121Z,13.30
2023-03-30T07:24:40.851Z,13.30
2023-03-30T07:25:13.707Z,13.40